sensor_id;sensor_type;location;lat;lon;timestamp;pressure;altitude;pressure_sealevel;temperature;humidity
71805;BME280;59654;52.216;5.616;2023-01-28T00:00:06;102783.72;;;1.61;82.54
71805;BME280;59654;52.216;5.616;2023-01-28T00:00:38;102782.94;;;1.64;82.23
71805;BME280;59654;52.216;5.616;2023-01-28T00:01:11;102777.63;;;1.62;82.13
71805;BME280;59654;52.216;5.616;2023-01-28T00:01:43;102781.19;;;1.64;81.50
71805;BME280;59654;52.216;5.616;2023-01-28T00:02:14;102775.09;;;1.65;82.33
71805;BME280;59654;52.216;5.616;2023-01-28T00:02:46;102781.28;;;1.67;81.31
71805;BME280;59654;52.216;5.616;2023-01-28T00:03:19;102780.50;;;1.71;81.60
71805;BME280;59654;52.216;5.616;2023-01-28T00:03:50;102779.66;;;1.72;81.01
71805;BME280;59654;52.216;5.616;2023-01-28T00:04:24;102771.75;;;1.71;81.28
71805;BME280;59654;52.216;5.616;2023-01-28T00:04:54;102783.13;;;1.71;81.37
71805;BME280;59654;52.216;5.616;2023-01-28T00:05:25;102771.75;;;1.71;81.45
71805;BME280;59654;52.216;5.616;2023-01-28T00:06:07;102781.44;;;1.73;81.65
71805;BME280;59654;52.216;5.616;2023-01-28T00:06:40;102781.34;;;1.69;81.20
71805;BME280;59654;52.216;5.616;2023-01-28T00:07:10;102783.06;;;1.68;81.34
71805;BME280;59654;52.216;5.616;2023-01-28T00:07:42;102782.13;;;1.66;82.11
71805;BME280;59654;52.216;5.616;2023-01-28T00:08:13;102790.03;;;1.66;82.32
71805;BME280;59654;52.216;5.616;2023-01-28T00:08:44;102780.34;;;1.65;82.48
71805;BME280;59654;52.216;5.616;2023-01-28T00:09:15;102782.09;;;1.65;82.31
71805;BME280;59654;52.216;5.616;2023-01-28T00:09:46;102778.53;;;1.63;82.44
71805;BME280;59654;52.216;5.616;2023-01-28T00:10:17;102784.66;;;1.63;82.37
71805;BME280;59654;52.216;5.616;2023-01-28T00:10:48;102783.81;;;1.64;81.73
71805;BME280;59654;52.216;5.616;2023-01-28T00:11:19;102783.81;;;1.64;82.42
71805;BME280;59654;52.216;5.616;2023-01-28T00:11:51;102786.44;;;1.64;82.01
71805;BME280;59654;52.216;5.616;2023-01-28T00:12:22;102787.25;;;1.62;82.26
71805;BME280;59654;52.216;5.616;2023-01-28T00:12:53;102785.50;;;1.62;82.43
71805;BME280;59654;52.216;5.616;2023-01-28T00:13:24;102780.25;;;1.62;82.63
71805;BME280;59654;52.216;5.616;2023-01-28T00:13:56;102781.94;;;1.60;82.65
71805;BME280;59654;52.216;5.616;2023-01-28T00:14:27;102784.56;;;1.60;83.39
71805;BME280;59654;52.216;5.616;2023-01-28T00:14:58;102784.53;;;1.58;83.30
71805;BME280;59654;52.216;5.616;2023-01-28T00:15:28;102785.38;;;1.57;83.15
71805;BME280;59654;52.216;5.616;2023-01-28T00:16:02;102782.72;;;1.57;83.33
71805;BME280;59654;52.216;5.616;2023-01-28T00:16:34;102791.50;;;1.58;82.99
71805;BME280;59654;52.216;5.616;2023-01-28T00:17:05;102789.88;;;1.62;82.18
71805;BME280;59654;52.216;5.616;2023-01-28T00:17:36;102795.19;;;1.63;82.27
71805;BME280;59654;52.216;5.616;2023-01-28T00:18:07;102791.63;;;1.61;82.58
71805;BME280;59654;52.216;5.616;2023-01-28T00:18:38;102788.03;;;1.59;82.57
71805;BME280;59654;52.216;5.616;2023-01-28T00:19:09;102786.25;;;1.58;82.83
71805;BME280;59654;52.216;5.616;2023-01-28T00:19:40;102793.25;;;1.57;83.01
71805;BME280;59654;52.216;5.616;2023-01-28T00:20:11;102791.41;;;1.55;82.70
71805;BME280;59654;52.216;5.616;2023-01-28T00:20:42;102796.66;;;1.53;81.80
71805;BME280;59654;52.216;5.616;2023-01-28T00:21:14;102786.16;;;1.53;81.59
71805;BME280;59654;52.216;5.616;2023-01-28T00:21:45;102792.19;;;1.51;82.64
71805;BME280;59654;52.216;5.616;2023-01-28T00:22:16;102795.50;;;1.45;81.80
71805;BME280;59654;52.216;5.616;2023-01-28T00:22:48;102786.53;;;1.37;82.00
71805;BME280;59654;52.216;5.616;2023-01-28T00:23:18;102788.91;;;1.30;81.51
71805;BME280;59654;52.216;5.616;2023-01-28T00:23:53;102785.19;;;1.23;81.07
71805;BME280;59654;52.216;5.616;2023-01-28T00:24:25;102786.84;;;1.19;81.50
71805;BME280;59654;52.216;5.616;2023-01-28T00:24:55;102783.31;;;1.19;81.50
71805;BME280;59654;52.216;5.616;2023-01-28T00:25:26;102781.59;;;1.19;82.38
71805;BME280;59654;52.216;5.616;2023-01-28T00:25:59;102787.72;;;1.20;81.87
71805;BME280;59654;52.216;5.616;2023-01-28T00:26:30;102785.06;;;1.18;81.78
71805;BME280;59654;52.216;5.616;2023-01-28T00:27:01;102787.72;;;1.20;82.59
71805;BME280;59654;52.216;5.616;2023-01-28T00:27:32;102788.81;;;1.27;82.49
71805;BME280;59654;52.216;5.616;2023-01-28T00:28:03;102785.44;;;1.31;82.82
71805;BME280;59654;52.216;5.616;2023-01-28T00:28:34;102785.31;;;1.28;82.02
71805;BME280;59654;52.216;5.616;2023-01-28T00:29:20;102792.22;;;1.24;82.61
71805;BME280;59654;52.216;5.616;2023-01-28T00:29:50;102792.16;;;1.22;83.02
71805;BME280;59654;52.216;5.616;2023-01-28T00:30:23;102782.47;;;1.20;83.34
71805;BME280;59654;52.216;5.616;2023-01-28T00:30:54;102785.94;;;1.19;83.12
71805;BME280;59654;52.216;5.616;2023-01-28T00:31:26;102788.53;;;1.17;83.82
71805;BME280;59654;52.216;5.616;2023-01-28T00:31:57;102789.31;;;1.15;83.85
71805;BME280;59654;52.216;5.616;2023-01-28T00:32:28;102793.69;;;1.14;83.69
71805;BME280;59654;52.216;5.616;2023-01-28T00:32:59;102790.16;;;1.14;83.40
71805;BME280;59654;52.216;5.616;2023-01-28T00:33:30;102788.41;;;1.14;83.80
71805;BME280;59654;52.216;5.616;2023-01-28T00:34:01;102786.53;;;1.10;84.15
71805;BME280;59654;52.216;5.616;2023-01-28T00:34:32;102790.00;;;1.09;83.76
71805;BME280;59654;52.216;5.616;2023-01-28T00:35:03;102790.78;;;1.07;84.33
71805;BME280;59654;52.216;5.616;2023-01-28T00:35:34;102797.59;;;1.00;84.14
71805;BME280;59654;52.216;5.616;2023-01-28T00:36:07;102794.88;;;0.97;83.83
71805;BME280;59654;52.216;5.616;2023-01-28T00:36:39;102798.09;;;0.89;85.08
71805;BME280;59654;52.216;5.616;2023-01-28T00:37:11;102797.09;;;0.85;84.65
71805;BME280;59654;52.216;5.616;2023-01-28T00:37:45;102793.41;;;0.80;84.53
71805;BME280;59654;52.216;5.616;2023-01-28T00:38:16;102795.84;;;0.74;84.97
71805;BME280;59654;52.216;5.616;2023-01-28T00:38:54;102793.91;;;0.68;84.73
71805;BME280;59654;52.216;5.616;2023-01-28T00:39:26;102799.88;;;0.64;84.85
71805;BME280;59654;52.216;5.616;2023-01-28T00:39:57;102791.97;;;0.63;84.97
71805;BME280;59654;52.216;5.616;2023-01-28T00:40:28;102800.00;;;0.67;84.78
71805;BME280;59654;52.216;5.616;2023-01-28T00:41:12;102794.81;;;0.69;85.04
71805;BME280;59654;52.216;5.616;2023-01-28T00:41:47;102793.31;;;0.77;85.76
71805;BME280;59654;52.216;5.616;2023-01-28T00:42:17;102795.09;;;0.78;84.94
71805;BME280;59654;52.216;5.616;2023-01-28T00:42:48;102786.59;;;0.85;85.33
71805;BME280;59654;52.216;5.616;2023-01-28T00:43:19;102788.44;;;0.88;85.12
71805;BME280;59654;52.216;5.616;2023-01-28T00:43:51;102791.97;;;0.88;85.27
71805;BME280;59654;52.216;5.616;2023-01-28T00:44:23;102798.09;;;0.89;85.03
71805;BME280;59654;52.216;5.616;2023-01-28T00:44:53;102785.09;;;0.93;84.79
71805;BME280;59654;52.216;5.616;2023-01-28T00:45:24;102797.44;;;0.96;84.42
71805;BME280;59654;52.216;5.616;2023-01-28T00:45:55;102789.72;;;1.00;84.65
71805;BME280;59654;52.216;5.616;2023-01-28T00:46:26;102798.66;;;1.05;83.43
71805;BME280;59654;52.216;5.616;2023-01-28T00:46:57;102791.44;;;1.00;83.73
71805;BME280;59654;52.216;5.616;2023-01-28T00:47:28;102786.25;;;1.01;84.49
71805;BME280;59654;52.216;5.616;2023-01-28T00:47:59;102787.25;;;1.05;84.19
71805;BME280;59654;52.216;5.616;2023-01-28T00:48:29;102788.09;;;1.04;83.95
71805;BME280;59654;52.216;5.616;2023-01-28T00:49:00;102797.66;;;1.02;83.29
71805;BME280;59654;52.216;5.616;2023-01-28T00:49:31;102797.59;;;1.00;83.24
71805;BME280;59654;52.216;5.616;2023-01-28T00:50:03;102793.13;;;0.98;84.02
71805;BME280;59654;52.216;5.616;2023-01-28T00:50:34;102792.97;;;0.93;83.48
71805;BME280;59654;52.216;5.616;2023-01-28T00:51:06;102795.47;;;0.89;84.09
71805;BME280;59654;52.216;5.616;2023-01-28T00:51:37;102795.38;;;0.85;84.46
71805;BME280;59654;52.216;5.616;2023-01-28T00:52:08;102792.59;;;0.81;84.42
71805;BME280;59654;52.216;5.616;2023-01-28T00:52:41;102795.16;;;0.79;84.08
71805;BME280;59654;52.216;5.616;2023-01-28T00:53:11;102789.84;;;0.78;84.61
71805;BME280;59654;52.216;5.616;2023-01-28T00:53:43;102793.31;;;0.77;84.31
71805;BME280;59654;52.216;5.616;2023-01-28T00:54:15;102794.25;;;0.79;84.62
71805;BME280;59654;52.216;5.616;2023-01-28T00:54:46;102789.13;;;0.82;85.38
71805;BME280;59654;52.216;5.616;2023-01-28T00:55:17;102788.22;;;0.81;84.46
71805;BME280;59654;52.216;5.616;2023-01-28T00:55:48;102788.44;;;0.88;84.63
71805;BME280;59654;52.216;5.616;2023-01-28T00:56:19;102789.41;;;0.91;84.74
71805;BME280;59654;52.216;5.616;2023-01-28T00:56:50;102790.47;;;0.96;84.55
71805;BME280;59654;52.216;5.616;2023-01-28T00:57:23;102793.91;;;0.95;85.07
71805;BME280;59654;52.216;5.616;2023-01-28T00:57:53;102793.03;;;0.95;84.51
71805;BME280;59654;52.216;5.616;2023-01-28T00:58:24;102798.34;;;0.96;84.51
71805;BME280;59654;52.216;5.616;2023-01-28T00:58:55;102797.50;;;0.97;84.88
71805;BME280;59654;52.216;5.616;2023-01-28T00:59:26;102799.34;;;1.00;85.16
71805;BME280;59654;52.216;5.616;2023-01-28T00:59:57;102799.34;;;1.00;85.48
71805;BME280;59654;52.216;5.616;2023-01-28T01:00:29;102791.34;;;0.97;84.94
71805;BME280;59654;52.216;5.616;2023-01-28T01:01:53;102787.63;;;0.90;85.12
71805;BME280;59654;52.216;5.616;2023-01-28T01:02:25;102789.22;;;0.85;84.99
71805;BME280;59654;52.216;5.616;2023-01-28T01:02:56;102784.75;;;0.82;85.29
71805;BME280;59654;52.216;5.616;2023-01-28T01:03:27;102782.06;;;0.81;85.00
71805;BME280;59654;52.216;5.616;2023-01-28T01:03:58;102783.81;;;0.80;85.31
71805;BME280;59654;52.216;5.616;2023-01-28T01:04:34;102788.28;;;0.83;84.86
71805;BME280;59654;52.216;5.616;2023-01-28T01:05:08;102782.06;;;0.81;85.69
71805;BME280;59654;52.216;5.616;2023-01-28T01:05:39;102785.66;;;0.83;85.61
71805;BME280;59654;52.216;5.616;2023-01-28T01:06:14;102777.78;;;0.83;85.91
71805;BME280;59654;52.216;5.616;2023-01-28T01:06:45;102782.28;;;0.87;85.40
71805;BME280;59654;52.216;5.616;2023-01-28T01:07:16;102779.72;;;0.89;85.46
71805;BME280;59654;52.216;5.616;2023-01-28T01:07:46;102778.91;;;0.91;85.15
71805;BME280;59654;52.216;5.616;2023-01-28T01:08:17;102775.38;;;0.91;84.79
71805;BME280;59654;52.216;5.616;2023-01-28T01:08:49;102780.63;;;0.89;83.97
71805;BME280;59654;52.216;5.616;2023-01-28T01:09:21;102771.63;;;0.82;84.55
71805;BME280;59654;52.216;5.616;2023-01-28T01:09:52;102774.16;;;0.79;85.14
71805;BME280;59654;52.216;5.616;2023-01-28T01:10:22;102779.22;;;0.73;85.84
71805;BME280;59654;52.216;5.616;2023-01-28T01:10:57;102778.16;;;0.68;85.41
71805;BME280;59654;52.216;5.616;2023-01-28T01:11:28;102771.91;;;0.65;85.91
71805;BME280;59654;52.216;5.616;2023-01-28T01:11:59;102777.09;;;0.63;85.05
71805;BME280;59654;52.216;5.616;2023-01-28T01:12:30;102776.28;;;0.64;86.03
71805;BME280;59654;52.216;5.616;2023-01-28T01:13:01;102774.47;;;0.63;85.54
71805;BME280;59654;52.216;5.616;2023-01-28T01:13:32;102781.34;;;0.60;85.84
71805;BME280;59654;52.216;5.616;2023-01-28T01:14:09;102772.69;;;0.62;86.76
71805;BME280;59654;52.216;5.616;2023-01-28T01:14:40;102778.84;;;0.63;86.69
71805;BME280;59654;52.216;5.616;2023-01-28T01:15:11;102781.47;;;0.63;85.59
71805;BME280;59654;52.216;5.616;2023-01-28T01:15:42;102771.69;;;0.59;86.33
71805;BME280;59654;52.216;5.616;2023-01-28T01:16:15;102780.41;;;0.58;87.11
71805;BME280;59654;52.216;5.616;2023-01-28T01:16:46;102778.59;;;0.55;86.37
71805;BME280;59654;52.216;5.616;2023-01-28T01:17:17;102780.31;;;0.55;86.67
71805;BME280;59654;52.216;5.616;2023-01-28T01:17:48;102779.63;;;0.60;86.85
71805;BME280;59654;52.216;5.616;2023-01-28T01:18:20;102778.00;;;0.64;86.37
71805;BME280;59654;52.216;5.616;2023-01-28T01:18:51;102784.94;;;0.62;86.59
71805;BME280;59654;52.216;5.616;2023-01-28T01:19:23;102781.16;;;0.54;86.40
71805;BME280;59654;52.216;5.616;2023-01-28T01:19:54;102777.38;;;0.45;86.08
71805;BME280;59654;52.216;5.616;2023-01-28T01:20:27;102779.00;;;0.42;86.80
71805;BME280;59654;52.216;5.616;2023-01-28T01:20:59;102784.06;;;0.36;86.51
71805;BME280;59654;52.216;5.616;2023-01-28T01:21:31;102784.81;;;0.33;86.93
71805;BME280;59654;52.216;5.616;2023-01-28T01:22:01;102790.13;;;0.35;87.93
71805;BME280;59654;52.216;5.616;2023-01-28T01:22:33;102791.19;;;0.40;87.79
71805;BME280;59654;52.216;5.616;2023-01-28T01:23:06;102784.34;;;0.45;87.57
71805;BME280;59654;52.216;5.616;2023-01-28T01:23:37;102794.91;;;0.46;87.99
71805;BME280;59654;52.216;5.616;2023-01-28T01:24:08;102784.63;;;0.53;87.17
71805;BME280;59654;52.216;5.616;2023-01-28T01:24:39;102788.28;;;0.58;87.42
71805;BME280;59654;52.216;5.616;2023-01-28T01:25:12;102790.22;;;0.63;86.65
71805;BME280;59654;52.216;5.616;2023-01-28T01:25:44;102792.06;;;0.66;86.54
71805;BME280;59654;52.216;5.616;2023-01-28T01:26:16;102787.81;;;0.69;86.65
71805;BME280;59654;52.216;5.616;2023-01-28T01:26:47;102780.00;;;0.71;85.74
71805;BME280;59654;52.216;5.616;2023-01-28T01:27:17;102786.22;;;0.74;85.58
71805;BME280;59654;52.216;5.616;2023-01-28T01:27:49;102788.00;;;0.75;86.07
71805;BME280;59654;52.216;5.616;2023-01-28T01:28:20;102781.97;;;0.78;86.11
71805;BME280;59654;52.216;5.616;2023-01-28T01:28:52;102778.63;;;0.82;85.11
71805;BME280;59654;52.216;5.616;2023-01-28T01:29:23;102784.88;;;0.85;84.78
71805;BME280;59654;52.216;5.616;2023-01-28T01:29:54;102782.34;;;0.89;84.16
71805;BME280;59654;52.216;5.616;2023-01-28T01:30:25;102789.34;;;0.88;84.61
71805;BME280;59654;52.216;5.616;2023-01-28T01:31:02;102782.47;;;0.93;84.95
71805;BME280;59654;52.216;5.616;2023-01-28T01:31:35;102791.34;;;0.97;84.86
71805;BME280;59654;52.216;5.616;2023-01-28T01:32:06;102793.91;;;0.95;84.26
71805;BME280;59654;52.216;5.616;2023-01-28T01:32:36;102793.91;;;0.95;84.33
71805;BME280;59654;52.216;5.616;2023-01-28T01:33:07;102786.09;;;0.97;84.40
71805;BME280;59654;52.216;5.616;2023-01-28T01:33:39;102791.28;;;0.95;83.96
71805;BME280;59654;52.216;5.616;2023-01-28T01:34:11;102794.72;;;0.93;83.79
71805;BME280;59654;52.216;5.616;2023-01-28T01:34:42;102791.25;;;0.94;83.89
71805;BME280;59654;52.216;5.616;2023-01-28T01:35:14;102786.88;;;0.94;84.58
71805;BME280;59654;52.216;5.616;2023-01-28T01:35:52;102790.47;;;0.96;84.39
71805;BME280;59654;52.216;5.616;2023-01-28T01:36:24;102782.69;;;0.99;83.76
71805;BME280;59654;52.216;5.616;2023-01-28T01:36:55;102779.94;;;0.96;83.57
71805;BME280;59654;52.216;5.616;2023-01-28T01:37:26;102786.09;;;0.97;83.69
71805;BME280;59654;52.216;5.616;2023-01-28T01:37:58;102776.63;;;1.02;83.79
71805;BME280;59654;52.216;5.616;2023-01-28T01:38:28;102783.72;;;1.04;83.55
71805;BME280;59654;52.216;5.616;2023-01-28T01:39:00;102779.44;;;1.08;83.67
71805;BME280;59654;52.216;5.616;2023-01-28T01:39:31;102778.59;;;1.09;82.47
71805;BME280;59654;52.216;5.616;2023-01-28T01:40:03;102776.91;;;1.11;83.21
71805;BME280;59654;52.216;5.616;2023-01-28T01:40:34;102780.50;;;1.13;83.33
71805;BME280;59654;52.216;5.616;2023-01-28T01:41:06;102784.00;;;1.13;83.31
71805;BME280;59654;52.216;5.616;2023-01-28T01:41:37;102782.28;;;1.14;83.29
71805;BME280;59654;52.216;5.616;2023-01-28T01:42:13;102786.75;;;1.16;83.50
71805;BME280;59654;52.216;5.616;2023-01-28T01:42:44;102780.59;;;1.16;82.67
71805;BME280;59654;52.216;5.616;2023-01-28T01:43:17;102791.84;;;1.12;83.31
71805;BME280;59654;52.216;5.616;2023-01-28T01:44:00;102790.22;;;1.15;83.16
71805;BME280;59654;52.216;5.616;2023-01-28T01:44:58;102790.25;;;1.17;81.93
71805;BME280;59654;52.216;5.616;2023-01-28T01:45:34;102794.91;;;1.26;82.11
71805;BME280;59654;52.216;5.616;2023-01-28T01:46:05;102793.09;;;1.25;81.73
71805;BME280;59654;52.216;5.616;2023-01-28T01:46:49;102794.06;;;1.27;81.40
71805;BME280;59654;52.216;5.616;2023-01-28T01:47:46;102799.34;;;1.28;82.13
71805;BME280;59654;52.216;5.616;2023-01-28T01:48:27;102799.31;;;1.27;82.40
71805;BME280;59654;52.216;5.616;2023-01-28T01:49:23;102799.47;;;1.31;82.32
71805;BME280;59654;52.216;5.616;2023-01-28T01:49:57;102801.28;;;1.34;81.95
71805;BME280;59654;52.216;5.616;2023-01-28T01:50:43;102798.72;;;1.35;81.74
71805;BME280;59654;52.216;5.616;2023-01-28T01:51:25;102801.41;;;1.37;81.52
71805;BME280;59654;52.216;5.616;2023-01-28T01:52:08;102801.44;;;1.38;81.52
71805;BME280;59654;52.216;5.616;2023-01-28T01:52:45;102805.81;;;1.38;81.79
71805;BME280;59654;52.216;5.616;2023-01-28T01:53:22;102799.69;;;1.39;82.38
71805;BME280;59654;52.216;5.616;2023-01-28T01:53:57;102804.09;;;1.40;81.87
71805;BME280;59654;52.216;5.616;2023-01-28T01:54:32;102798.88;;;1.41;81.93
71805;BME280;59654;52.216;5.616;2023-01-28T01:55:09;102799.78;;;1.42;82.05
71805;BME280;59654;52.216;5.616;2023-01-28T01:55:46;102799.78;;;1.42;82.07
71805;BME280;59654;52.216;5.616;2023-01-28T01:56:27;102801.47;;;1.40;81.63
71805;BME280;59654;52.216;5.616;2023-01-28T01:57:05;102804.94;;;1.39;82.23
71805;BME280;59654;52.216;5.616;2023-01-28T01:57:42;102804.09;;;1.40;81.19
71805;BME280;59654;52.216;5.616;2023-01-28T01:58:18;102804.09;;;1.40;81.84
71805;BME280;59654;52.216;5.616;2023-01-28T01:58:54;102797.09;;;1.40;81.98
71805;BME280;59654;52.216;5.616;2023-01-28T01:59:32;102794.41;;;1.39;80.71
71805;BME280;59654;52.216;5.616;2023-01-28T02:00:06;102801.44;;;1.38;81.47
71805;BME280;59654;52.216;5.616;2023-01-28T02:00:45;102799.66;;;1.37;80.90
71805;BME280;59654;52.216;5.616;2023-01-28T02:01:20;102804.06;;;1.38;80.68
71805;BME280;59654;52.216;5.616;2023-01-28T02:01:53;102803.19;;;1.39;80.91
71805;BME280;59654;52.216;5.616;2023-01-28T02:02:24;102802.41;;;1.42;81.40
71805;BME280;59654;52.216;5.616;2023-01-28T02:02:55;102802.47;;;1.43;80.87
71805;BME280;59654;52.216;5.616;2023-01-28T02:03:42;102803.41;;;1.45;81.54
71805;BME280;59654;52.216;5.616;2023-01-28T02:04:25;102800.78;;;1.45;81.05
71805;BME280;59654;52.216;5.616;2023-01-28T02:04:58;102813.91;;;1.45;80.65
71805;BME280;59654;52.216;5.616;2023-01-28T02:05:29;102811.28;;;1.45;81.08
71805;BME280;59654;52.216;5.616;2023-01-28T02:06:00;102810.44;;;1.46;81.52
71805;BME280;59654;52.216;5.616;2023-01-28T02:06:32;102809.56;;;1.46;81.13
71805;BME280;59654;52.216;5.616;2023-01-28T02:07:07;102806.03;;;1.45;80.74
71805;BME280;59654;52.216;5.616;2023-01-28T02:07:39;102801.72;;;1.47;80.60
71805;BME280;59654;52.216;5.616;2023-01-28T02:08:11;102806.94;;;1.46;79.95
71805;BME280;59654;52.216;5.616;2023-01-28T02:08:53;102811.13;;;1.41;81.15
71805;BME280;59654;52.216;5.616;2023-01-28T02:09:33;102804.91;;;1.37;81.03
71805;BME280;59654;52.216;5.616;2023-01-28T02:10:09;102805.81;;;1.39;80.90
71805;BME280;59654;52.216;5.616;2023-01-28T02:10:41;102808.47;;;1.39;81.64
71805;BME280;59654;52.216;5.616;2023-01-28T02:11:14;102811.09;;;1.39;81.01
71805;BME280;59654;52.216;5.616;2023-01-28T02:11:47;102809.34;;;1.38;80.98
71805;BME280;59654;52.216;5.616;2023-01-28T02:12:26;102804.88;;;1.36;81.39
71805;BME280;59654;52.216;5.616;2023-01-28T02:13:00;102807.44;;;1.34;81.56
71805;BME280;59654;52.216;5.616;2023-01-28T02:13:37;102805.75;;;1.36;81.29
71805;BME280;59654;52.216;5.616;2023-01-28T02:14:14;102806.59;;;1.35;81.70
71805;BME280;59654;52.216;5.616;2023-01-28T02:14:53;102811.81;;;1.34;81.65
71805;BME280;59654;52.216;5.616;2023-01-28T02:15:26;102810.03;;;1.33;81.66
71805;BME280;59654;52.216;5.616;2023-01-28T02:16:02;102808.22;;;1.32;80.29
71805;BME280;59654;52.216;5.616;2023-01-28T02:16:35;102809.97;;;1.31;80.98
71805;BME280;59654;52.216;5.616;2023-01-28T02:17:06;102809.03;;;1.29;81.22
71805;BME280;59654;52.216;5.616;2023-01-28T02:17:38;102805.34;;;1.24;81.24
71805;BME280;59654;52.216;5.616;2023-01-28T02:18:08;102807.75;;;1.16;80.69
71805;BME280;59654;52.216;5.616;2023-01-28T02:18:39;102818.94;;;1.11;80.75
71805;BME280;59654;52.216;5.616;2023-01-28T02:19:11;102810.91;;;1.06;81.15
71805;BME280;59654;52.216;5.616;2023-01-28T02:20:26;102804.44;;;0.95;81.36
71805;BME280;59654;52.216;5.616;2023-01-28T02:25:39;102815.72;;;0.93;83.02
71805;BME280;59654;52.216;5.616;2023-01-28T02:28:31;102820.88;;;0.64;83.86
71805;BME280;59654;52.216;5.616;2023-01-28T02:29:14;102813.59;;;0.56;83.51
71805;BME280;59654;52.216;5.616;2023-01-28T02:30:33;102827.41;;;0.50;84.30
71805;BME280;59654;52.216;5.616;2023-01-28T02:33:04;102819.47;;;0.48;83.69
71805;BME280;59654;52.216;5.616;2023-01-28T02:34:47;102811.88;;;0.56;84.29
71805;BME280;59654;52.216;5.616;2023-01-28T02:35:38;102807.59;;;0.60;84.40
71805;BME280;59654;52.216;5.616;2023-01-28T02:36:28;102815.69;;;0.66;84.45
71805;BME280;59654;52.216;5.616;2023-01-28T02:37:26;102805.94;;;0.62;82.83
71805;BME280;59654;52.216;5.616;2023-01-28T02:39:15;102814.09;;;0.45;82.29
71805;BME280;59654;52.216;5.616;2023-01-28T02:39:53;102818.47;;;0.45;82.84
71805;BME280;59654;52.216;5.616;2023-01-28T02:40:33;102814.94;;;0.44;83.01
71805;BME280;59654;52.216;5.616;2023-01-28T02:41:36;102816.59;;;0.41;82.50
71805;BME280;59654;52.216;5.616;2023-01-28T02:42:32;102807.53;;;0.33;83.17
71805;BME280;59654;52.216;5.616;2023-01-28T02:43:04;102807.44;;;0.30;82.91
71805;BME280;59654;52.216;5.616;2023-01-28T02:43:39;102807.25;;;0.25;83.13
71805;BME280;59654;52.216;5.616;2023-01-28T02:44:15;102814.09;;;0.20;82.97
71805;BME280;59654;52.216;5.616;2023-01-28T02:44:46;102815.72;;;0.16;83.04
71805;BME280;59654;52.216;5.616;2023-01-28T02:47:12;102814.81;;;0.16;84.01
71805;BME280;59654;52.216;5.616;2023-01-28T02:48:02;102818.22;;;0.13;83.04
71805;BME280;59654;52.216;5.616;2023-01-28T02:48:33;102819.81;;;0.10;83.28
71805;BME280;59654;52.216;5.616;2023-01-28T02:49:10;102815.34;;;0.06;83.57
71805;BME280;59654;52.216;5.616;2023-01-28T02:49:48;102809.13;;;0.04;83.49
71805;BME280;59654;52.216;5.616;2023-01-28T02:50:21;102819.50;;;0.01;84.38
71805;BME280;59654;52.216;5.616;2023-01-28T02:51:04;102818.56;;;-0.01;84.90
71805;BME280;59654;52.216;5.616;2023-01-28T02:53:31;102830.72;;;-0.03;84.44
71805;BME280;59654;52.216;5.616;2023-01-28T02:54:37;102828.31;;;0.03;84.29
71805;BME280;59654;52.216;5.616;2023-01-28T03:01:40;102813.81;;;0.12;83.83
71805;BME280;59654;52.216;5.616;2023-01-28T03:03:14;102810.75;;;0.24;82.76
71805;BME280;59654;52.216;5.616;2023-01-28T03:03:52;102805.44;;;0.23;82.99
71805;BME280;59654;52.216;5.616;2023-01-28T03:04:40;102814.28;;;0.25;82.33
71805;BME280;59654;52.216;5.616;2023-01-28T03:05:25;102809.81;;;0.22;82.59
71805;BME280;59654;52.216;5.616;2023-01-28T03:06:05;102805.16;;;0.15;82.04
71805;BME280;59654;52.216;5.616;2023-01-28T03:06:48;102805.09;;;0.13;82.56
71805;BME280;59654;52.216;5.616;2023-01-28T03:07:26;102809.19;;;0.05;82.23
71805;BME280;59654;52.216;5.616;2023-01-28T03:07:58;102796.84;;;0.03;82.46
71805;BME280;59654;52.216;5.616;2023-01-28T03:08:37;102794.06;;;-0.02;83.08
71805;BME280;59654;52.216;5.616;2023-01-28T03:09:30;102801.03;;;-0.02;82.49
71805;BME280;59654;52.216;5.616;2023-01-28T03:10:06;102802.09;;;0.03;83.11
71805;BME280;59654;52.216;5.616;2023-01-28T03:10:39;102809.31;;;0.08;83.29
71805;BME280;59654;52.216;5.616;2023-01-28T03:11:10;102805.16;;;0.15;83.29
71805;BME280;59654;52.216;5.616;2023-01-28T03:12:10;102802.81;;;0.23;82.49
71805;BME280;59654;52.216;5.616;2023-01-28T03:13:02;102803.03;;;0.29;82.44
71805;BME280;59654;52.216;5.616;2023-01-28T03:13:51;102810.13;;;0.31;82.72
71805;BME280;59654;52.216;5.616;2023-01-28T03:14:45;102800.78;;;0.39;82.23
71805;BME280;59654;52.216;5.616;2023-01-28T03:15:47;102810.53;;;0.43;81.85
71805;BME280;59654;52.216;5.616;2023-01-28T03:16:38;102807.25;;;0.49;81.34
71805;BME280;59654;52.216;5.616;2023-01-28T03:17:35;102796.84;;;0.52;80.17
71805;BME280;59654;52.216;5.616;2023-01-28T03:18:44;102803.94;;;0.55;80.51
71805;BME280;59654;52.216;5.616;2023-01-28T03:19:36;102808.44;;;0.59;80.11
71805;BME280;59654;52.216;5.616;2023-01-28T03:21:19;102808.59;;;0.63;80.37
71805;BME280;59654;52.216;5.616;2023-01-28T03:22:04;102808.72;;;0.66;79.90
71805;BME280;59654;52.216;5.616;2023-01-28T03:22:57;102798.22;;;0.66;79.63
71805;BME280;59654;52.216;5.616;2023-01-28T03:24:16;102808.13;;;0.49;79.30
71805;BME280;59654;52.216;5.616;2023-01-28T03:25:14;102804.19;;;0.37;80.98
71805;BME280;59654;52.216;5.616;2023-01-28T03:26:11;102817.97;;;0.31;80.93
71805;BME280;59654;52.216;5.616;2023-01-28T03:28:31;102805.44;;;0.23;82.51
71805;BME280;59654;52.216;5.616;2023-01-28T03:29:24;102805.53;;;0.26;82.11
71805;BME280;59654;52.216;5.616;2023-01-28T03:31:52;102806.19;;;0.44;81.07
71805;BME280;59654;52.216;5.616;2023-01-28T03:32:43;102810.66;;;0.46;81.01
71805;BME280;59654;52.216;5.616;2023-01-28T03:33:35;102809.63;;;0.43;80.83
71805;BME280;59654;52.216;5.616;2023-01-28T03:34:26;102812.25;;;0.43;81.77
71805;BME280;59654;52.216;5.616;2023-01-28T03:35:20;102809.69;;;0.44;82.21
71805;BME280;59654;52.216;5.616;2023-01-28T03:36:11;102807.06;;;0.44;81.23
71805;BME280;59654;52.216;5.616;2023-01-28T03:37:01;102808.75;;;0.42;81.07